sensor_id;sensor_type;location;lat;lon;timestamp;pressure;altitude;pressure_sealevel;temperature;humidity
28606;BME280;46498;49.968;7.754;2022-07-06T00:01:53;97842.00;;;15.00;69.91
28606;BME280;46498;49.968;7.754;2022-07-06T00:06:54;97847.00;;;14.87;70.53
28606;BME280;46498;49.968;7.754;2022-07-06T00:11:55;97847.00;;;14.73;69.70
28606;BME280;46498;49.968;7.754;2022-07-06T00:16:57;97852.00;;;14.60;70.86
28606;BME280;46498;49.968;7.754;2022-07-06T00:21:58;97850.00;;;14.59;70.22
28606;BME280;46498;49.968;7.754;2022-07-06T00:26:59;97836.00;;;14.59;70.31
28606;BME280;46498;49.968;7.754;2022-07-06T00:32:00;97843.00;;;14.60;70.73
28606;BME280;46498;49.968;7.754;2022-07-06T00:37:01;97849.00;;;14.78;69.58
28606;BME280;46498;49.968;7.754;2022-07-06T00:42:03;97851.00;;;14.46;71.17
28606;BME280;46498;49.968;7.754;2022-07-06T00:47:04;97850.00;;;14.42;71.36
28606;BME280;46498;49.968;7.754;2022-07-06T00:52:06;97848.00;;;14.30;71.76
28606;BME280;46498;49.968;7.754;2022-07-06T00:57:07;97851.00;;;14.43;70.92
28606;BME280;46498;49.968;7.754;2022-07-06T01:02:08;97860.00;;;14.23;71.81
28606;BME280;46498;49.968;7.754;2022-07-06T01:07:10;97857.00;;;13.99;73.20
28606;BME280;46498;49.968;7.754;2022-07-06T01:12:11;97861.00;;;13.80;74.09
28606;BME280;46498;49.968;7.754;2022-07-06T01:17:14;97867.00;;;13.83;73.87
28606;BME280;46498;49.968;7.754;2022-07-06T01:22:16;97862.00;;;13.93;73.29
28606;BME280;46498;49.968;7.754;2022-07-06T01:27:17;97862.00;;;13.98;72.71
28606;BME280;46498;49.968;7.754;2022-07-06T01:32:19;97869.00;;;14.01;71.97
28606;BME280;46498;49.968;7.754;2022-07-06T01:37:21;97864.00;;;14.12;71.07
28606;BME280;46498;49.968;7.754;2022-07-06T01:42:23;97864.00;;;14.14;70.92
28606;BME280;46498;49.968;7.754;2022-07-06T01:47:24;97865.00;;;13.79;71.98
28606;BME280;46498;49.968;7.754;2022-07-06T01:52:26;97851.00;;;13.56;73.18
28606;BME280;46498;49.968;7.754;2022-07-06T01:57:27;97861.00;;;13.52;73.51
28606;BME280;46498;49.968;7.754;2022-07-06T02:02:28;97850.00;;;13.59;73.08
28606;BME280;46498;49.968;7.754;2022-07-06T02:07:29;97848.00;;;13.65;73.25
28606;BME280;46498;49.968;7.754;2022-07-06T02:12:31;97854.00;;;13.70;72.20
28606;BME280;46498;49.968;7.754;2022-07-06T02:17:32;97857.00;;;13.41;74.27
28606;BME280;46498;49.968;7.754;2022-07-06T02:22:33;97856.00;;;13.23;75.47
28606;BME280;46498;49.968;7.754;2022-07-06T02:27:34;97861.00;;;13.21;75.43
28606;BME280;46498;49.968;7.754;2022-07-06T02:32:38;97853.00;;;13.21;75.54
28606;BME280;46498;49.968;7.754;2022-07-06T02:37:39;97852.00;;;12.98;76.54
28606;BME280;46498;49.968;7.754;2022-07-06T02:42:41;97853.00;;;12.93;76.95
28606;BME280;46498;49.968;7.754;2022-07-06T02:47:42;97851.00;;;13.06;75.58
28606;BME280;46498;49.968;7.754;2022-07-06T02:52:43;97859.00;;;12.79;77.18
28606;BME280;46498;49.968;7.754;2022-07-06T02:57:44;97863.00;;;12.75;77.57
28606;BME280;46498;49.968;7.754;2022-07-06T03:02:46;97864.00;;;12.72;77.64
28606;BME280;46498;49.968;7.754;2022-07-06T03:07:47;97867.00;;;12.60;78.66
28606;BME280;46498;49.968;7.754;2022-07-06T03:12:49;97864.00;;;12.68;77.61
28606;BME280;46498;49.968;7.754;2022-07-06T03:17:50;97864.00;;;12.63;77.91
28606;BME280;46498;49.968;7.754;2022-07-06T03:22:52;97875.00;;;12.51;78.77
28606;BME280;46498;49.968;7.754;2022-07-06T03:27:53;97888.00;;;12.35;79.49
28606;BME280;46498;49.968;7.754;2022-07-06T03:32:55;97886.00;;;12.42;79.09
28606;BME280;46498;49.968;7.754;2022-07-06T03:37:56;97897.00;;;12.47;78.57
28606;BME280;46498;49.968;7.754;2022-07-06T03:42:58;97893.00;;;12.41;78.98
28606;BME280;46498;49.968;7.754;2022-07-06T03:47:59;97895.00;;;12.50;78.56
28606;BME280;46498;49.968;7.754;2022-07-06T03:53:01;97895.00;;;12.44;78.63
28606;BME280;46498;49.968;7.754;2022-07-06T03:58:03;97896.00;;;12.33;78.82
28606;BME280;46498;49.968;7.754;2022-07-06T04:03:08;97892.00;;;12.39;77.81
28606;BME280;46498;49.968;7.754;2022-07-06T04:08:14;97892.00;;;12.43;76.92
28606;BME280;46498;49.968;7.754;2022-07-06T04:13:20;97904.00;;;12.41;76.06
28606;BME280;46498;49.968;7.754;2022-07-06T04:18:22;97897.00;;;12.60;74.95
28606;BME280;46498;49.968;7.754;2022-07-06T04:23:27;97908.00;;;12.76;73.76
28606;BME280;46498;49.968;7.754;2022-07-06T04:28:29;97903.00;;;12.84;71.70
28606;BME280;46498;49.968;7.754;2022-07-06T04:33:30;97908.00;;;13.00;70.44
28606;BME280;46498;49.968;7.754;2022-07-06T04:38:31;97907.00;;;13.22;68.02
28606;BME280;46498;49.968;7.754;2022-07-06T04:43:35;97895.00;;;13.30;67.18
28606;BME280;46498;49.968;7.754;2022-07-06T04:48:37;97896.00;;;13.55;65.31
28606;BME280;46498;49.968;7.754;2022-07-06T04:53:41;97893.00;;;13.57;65.17
28606;BME280;46498;49.968;7.754;2022-07-06T04:58:42;97894.00;;;13.65;64.43
28606;BME280;46498;49.968;7.754;2022-07-06T05:03:44;97901.00;;;13.71;64.24
28606;BME280;46498;49.968;7.754;2022-07-06T05:08:46;97906.00;;;13.76;63.54
28606;BME280;46498;49.968;7.754;2022-07-06T05:13:48;97917.00;;;13.86;63.67
28606;BME280;46498;49.968;7.754;2022-07-06T05:18:50;97919.00;;;13.95;63.25
28606;BME280;46498;49.968;7.754;2022-07-06T05:23:51;97914.00;;;14.16;62.88
28606;BME280;46498;49.968;7.754;2022-07-06T05:28:52;97917.00;;;14.35;62.45
28606;BME280;46498;49.968;7.754;2022-07-06T05:33:54;97918.00;;;14.32;62.01
28606;BME280;46498;49.968;7.754;2022-07-06T05:38:56;97907.00;;;14.27;62.21
28606;BME280;46498;49.968;7.754;2022-07-06T05:43:57;97913.00;;;14.54;61.46
28606;BME280;46498;49.968;7.754;2022-07-06T05:48:58;97902.00;;;14.47;60.69
28606;BME280;46498;49.968;7.754;2022-07-06T05:54:20;97912.00;;;14.88;59.68
28606;BME280;46498;49.968;7.754;2022-07-06T05:59:23;97906.00;;;15.13;58.75
28606;BME280;46498;49.968;7.754;2022-07-06T06:04:24;97907.00;;;14.99;59.07
28606;BME280;46498;49.968;7.754;2022-07-06T06:09:25;97923.00;;;15.29;58.75
28606;BME280;46498;49.968;7.754;2022-07-06T06:14:26;97919.00;;;15.70;56.56
28606;BME280;46498;49.968;7.754;2022-07-06T06:19:28;97918.00;;;15.80;55.80
28606;BME280;46498;49.968;7.754;2022-07-06T06:24:29;97930.00;;;15.67;55.72
28606;BME280;46498;49.968;7.754;2022-07-06T06:29:30;97930.00;;;15.93;55.34
28606;BME280;46498;49.968;7.754;2022-07-06T06:34:32;97933.00;;;14.89;58.64
28606;BME280;46498;49.968;7.754;2022-07-06T06:39:32;97946.00;;;15.66;56.89
28606;BME280;46498;49.968;7.754;2022-07-06T06:44:34;97948.00;;;16.00;54.04
28606;BME280;46498;49.968;7.754;2022-07-06T06:49:34;97942.00;;;15.94;54.84
28606;BME280;46498;49.968;7.754;2022-07-06T06:54:35;97942.00;;;15.87;56.22
28606;BME280;46498;49.968;7.754;2022-07-06T06:59:36;97956.00;;;15.78;56.63
28606;BME280;46498;49.968;7.754;2022-07-06T07:04:37;97964.00;;;15.78;55.48
28606;BME280;46498;49.968;7.754;2022-07-06T07:09:38;97974.00;;;15.81;57.22
28606;BME280;46498;49.968;7.754;2022-07-06T07:14:39;97962.00;;;16.08;55.32
28606;BME280;46498;49.968;7.754;2022-07-06T07:19:41;97975.00;;;16.24;53.50
28606;BME280;46498;49.968;7.754;2022-07-06T07:24:42;97979.00;;;15.56;55.11
28606;BME280;46498;49.968;7.754;2022-07-06T07:29:43;97962.00;;;15.36;56.31
28606;BME280;46498;49.968;7.754;2022-07-06T07:34:43;97973.00;;;15.65;54.25
28606;BME280;46498;49.968;7.754;2022-07-06T07:39:45;97972.00;;;15.76;55.54
28606;BME280;46498;49.968;7.754;2022-07-06T07:44:46;97971.00;;;16.28;52.35
28606;BME280;46498;49.968;7.754;2022-07-06T07:49:47;97976.00;;;17.04;51.57
28606;BME280;46498;49.968;7.754;2022-07-06T07:54:48;97983.00;;;16.71;50.12
28606;BME280;46498;49.968;7.754;2022-07-06T08:00:15;97980.00;;;16.87;50.02
28606;BME280;46498;49.968;7.754;2022-07-06T08:05:15;97976.00;;;16.77;50.02
28606;BME280;46498;49.968;7.754;2022-07-06T08:10:16;97971.00;;;17.11;49.30
28606;BME280;46498;49.968;7.754;2022-07-06T08:15:17;97963.00;;;17.11;48.38
28606;BME280;46498;49.968;7.754;2022-07-06T08:20:19;97955.00;;;16.69;49.82
28606;BME280;46498;49.968;7.754;2022-07-06T08:25:20;97969.00;;;16.16;50.58
28606;BME280;46498;49.968;7.754;2022-07-06T08:30:21;97976.00;;;16.20;51.93
28606;BME280;46498;49.968;7.754;2022-07-06T08:35:22;97976.00;;;16.74;51.00
28606;BME280;46498;49.968;7.754;2022-07-06T08:40:23;97960.00;;;17.13;49.69
28606;BME280;46498;49.968;7.754;2022-07-06T08:45:26;97957.00;;;17.48;49.13
28606;BME280;46498;49.968;7.754;2022-07-06T08:50:27;97966.00;;;17.61;47.25
28606;BME280;46498;49.968;7.754;2022-07-06T08:55:28;97970.00;;;17.72;47.46
28606;BME280;46498;49.968;7.754;2022-07-06T09:00:30;97966.00;;;17.41;46.21
28606;BME280;46498;49.968;7.754;2022-07-06T09:05:32;97970.00;;;17.79;47.17
28606;BME280;46498;49.968;7.754;2022-07-06T09:10:34;97960.00;;;16.99;48.83
28606;BME280;46498;49.968;7.754;2022-07-06T09:15:36;97971.00;;;17.09;47.84
28606;BME280;46498;49.968;7.754;2022-07-06T09:20:41;97979.00;;;17.37;47.12
28606;BME280;46498;49.968;7.754;2022-07-06T09:25:42;97967.00;;;17.72;46.45
28606;BME280;46498;49.968;7.754;2022-07-06T09:30:48;97973.00;;;18.10;45.93
28606;BME280;46498;49.968;7.754;2022-07-06T09:35:49;97977.00;;;18.37;45.56
28606;BME280;46498;49.968;7.754;2022-07-06T09:40:50;97969.00;;;18.73;44.11
28606;BME280;46498;49.968;7.754;2022-07-06T09:45:53;97975.00;;;18.77;44.07
28606;BME280;46498;49.968;7.754;2022-07-06T09:56:07;97982.00;;;18.83;43.23
28606;BME280;46498;49.968;7.754;2022-07-06T10:01:08;97994.00;;;19.08;42.61
28606;BME280;46498;49.968;7.754;2022-07-06T10:06:10;97985.00;;;19.33;42.69
28606;BME280;46498;49.968;7.754;2022-07-06T10:11:12;97978.00;;;19.58;42.71
28606;BME280;46498;49.968;7.754;2022-07-06T10:16:15;97981.00;;;19.62;42.69
28606;BME280;46498;49.968;7.754;2022-07-06T10:21:17;97973.00;;;19.98;40.44
28606;BME280;46498;49.968;7.754;2022-07-06T10:26:18;97977.00;;;20.20;40.66
28606;BME280;46498;49.968;7.754;2022-07-06T10:31:22;97978.00;;;20.65;40.14
28606;BME280;46498;49.968;7.754;2022-07-06T10:36:25;97979.00;;;20.64;38.97
28606;BME280;46498;49.968;7.754;2022-07-06T10:41:33;97975.00;;;20.73;38.52
28606;BME280;46498;49.968;7.754;2022-07-06T10:46:36;97969.00;;;20.38;38.95
28606;BME280;46498;49.968;7.754;2022-07-06T10:51:40;97984.00;;;20.97;38.75
28606;BME280;46498;49.968;7.754;2022-07-06T10:56:46;97978.00;;;21.65;37.58
28606;BME280;46498;49.968;7.754;2022-07-06T11:02:16;97974.00;;;21.71;37.25
28606;BME280;46498;49.968;7.754;2022-07-06T11:07:19;97973.00;;;21.22;36.97
28606;BME280;46498;49.968;7.754;2022-07-06T11:12:21;97971.00;;;20.57;38.69
28606;BME280;46498;49.968;7.754;2022-07-06T11:17:22;97985.00;;;20.50;39.18
28606;BME280;46498;49.968;7.754;2022-07-06T11:22:24;97975.00;;;20.36;38.18
28606;BME280;46498;49.968;7.754;2022-07-06T11:27:27;97974.00;;;21.01;36.52
28606;BME280;46498;49.968;7.754;2022-07-06T11:32:28;97988.00;;;21.32;36.69
28606;BME280;46498;49.968;7.754;2022-07-06T11:37:29;97975.00;;;21.42;37.40
28606;BME280;46498;49.968;7.754;2022-07-06T11:42:30;97980.00;;;21.13;37.77
28606;BME280;46498;49.968;7.754;2022-07-06T11:47:31;97976.00;;;20.67;38.03
28606;BME280;46498;49.968;7.754;2022-07-06T11:52:32;97977.00;;;20.82;37.56
28606;BME280;46498;49.968;7.754;2022-07-06T11:57:34;97963.00;;;20.98;36.89
28606;BME280;46498;49.968;7.754;2022-07-06T12:02:35;97954.00;;;21.46;35.59
28606;BME280;46498;49.968;7.754;2022-07-06T12:07:36;97964.00;;;20.24;37.10
28606;BME280;46498;49.968;7.754;2022-07-06T12:12:37;97960.00;;;20.75;37.39
28606;BME280;46498;49.968;7.754;2022-07-06T12:17:38;97960.00;;;21.03;36.53
28606;BME280;46498;49.968;7.754;2022-07-06T12:22:44;97956.00;;;21.01;36.43
28606;BME280;46498;49.968;7.754;2022-07-06T12:27:45;97956.00;;;20.93;36.04
28606;BME280;46498;49.968;7.754;2022-07-06T12:32:46;97958.00;;;20.58;37.90
28606;BME280;46498;49.968;7.754;2022-07-06T12:37:57;97961.00;;;21.38;35.96
28606;BME280;46498;49.968;7.754;2022-07-06T12:43:01;97957.00;;;21.00;37.02
28606;BME280;46498;49.968;7.754;2022-07-06T12:48:03;97944.00;;;21.43;37.44
28606;BME280;46498;49.968;7.754;2022-07-06T12:53:23;97951.00;;;21.30;36.87
28606;BME280;46498;49.968;7.754;2022-07-06T12:58:25;97953.00;;;21.36;37.26
28606;BME280;46498;49.968;7.754;2022-07-06T13:03:26;97962.00;;;21.19;36.51
28606;BME280;46498;49.968;7.754;2022-07-06T13:08:28;97962.00;;;20.55;38.08
28606;BME280;46498;49.968;7.754;2022-07-06T13:13:28;97955.00;;;20.63;37.45
28606;BME280;46498;49.968;7.754;2022-07-06T13:18:29;97962.00;;;20.63;37.81
28606;BME280;46498;49.968;7.754;2022-07-06T13:23:30;97952.00;;;20.68;37.50
28606;BME280;46498;49.968;7.754;2022-07-06T13:28:31;97956.00;;;20.86;37.62
28606;BME280;46498;49.968;7.754;2022-07-06T13:33:32;97956.00;;;21.31;36.30
28606;BME280;46498;49.968;7.754;2022-07-06T13:38:34;97944.00;;;21.25;36.04
28606;BME280;46498;49.968;7.754;2022-07-06T13:43:35;97937.00;;;20.71;37.04
28606;BME280;46498;49.968;7.754;2022-07-06T13:48:38;97941.00;;;20.62;38.01
28606;BME280;46498;49.968;7.754;2022-07-06T13:53:41;97930.00;;;20.13;37.64
28606;BME280;46498;49.968;7.754;2022-07-06T13:58:42;97935.00;;;19.88;38.56
28606;BME280;46498;49.968;7.754;2022-07-06T14:03:43;97937.00;;;19.98;39.17
28606;BME280;46498;49.968;7.754;2022-07-06T14:08:44;97928.00;;;19.88;38.35
28606;BME280;46498;49.968;7.754;2022-07-06T14:13:45;97914.00;;;19.77;39.55
28606;BME280;46498;49.968;7.754;2022-07-06T14:18:46;97911.00;;;19.72;38.89
28606;BME280;46498;49.968;7.754;2022-07-06T14:23:48;97903.00;;;19.71;40.10
28606;BME280;46498;49.968;7.754;2022-07-06T14:28:49;97900.00;;;19.79;40.33
28606;BME280;46498;49.968;7.754;2022-07-06T14:33:50;97899.00;;;20.00;39.67
28606;BME280;46498;49.968;7.754;2022-07-06T14:38:52;97891.00;;;19.79;38.92
28606;BME280;46498;49.968;7.754;2022-07-06T14:43:53;97884.00;;;19.64;39.85
28606;BME280;46498;49.968;7.754;2022-07-06T14:48:53;97881.00;;;19.35;39.56
28606;BME280;46498;49.968;7.754;2022-07-06T14:53:55;97880.00;;;19.17;40.02
28606;BME280;46498;49.968;7.754;2022-07-06T14:58:55;97887.00;;;18.86;40.51
28606;BME280;46498;49.968;7.754;2022-07-06T15:04:25;97880.00;;;18.81;40.74
28606;BME280;46498;49.968;7.754;2022-07-06T15:09:26;97878.00;;;18.87;40.98
28606;BME280;46498;49.968;7.754;2022-07-06T15:14:29;97887.00;;;18.87;40.94
28606;BME280;46498;49.968;7.754;2022-07-06T15:19:30;97878.00;;;19.40;40.15
28606;BME280;46498;49.968;7.754;2022-07-06T15:24:31;97874.00;;;19.91;40.22
28606;BME280;46498;49.968;7.754;2022-07-06T15:29:32;97871.00;;;19.95;39.73
28606;BME280;46498;49.968;7.754;2022-07-06T15:34:33;97867.00;;;19.14;40.78
28606;BME280;46498;49.968;7.754;2022-07-06T15:39:35;97868.00;;;19.53;40.83
28606;BME280;46498;49.968;7.754;2022-07-06T15:44:36;97864.00;;;19.56;40.98
28606;BME280;46498;49.968;7.754;2022-07-06T15:49:36;97856.00;;;19.45;40.31
28606;BME280;46498;49.968;7.754;2022-07-06T15:54:38;97850.00;;;19.56;40.66
28606;BME280;46498;49.968;7.754;2022-07-06T15:59:39;97847.00;;;19.45;40.77
28606;BME280;46498;49.968;7.754;2022-07-06T16:04:39;97845.00;;;19.74;40.60
28606;BME280;46498;49.968;7.754;2022-07-06T16:09:40;97837.00;;;19.37;40.24
28606;BME280;46498;49.968;7.754;2022-07-06T16:14:41;97829.00;;;19.19;40.51
28606;BME280;46498;49.968;7.754;2022-07-06T16:19:42;97822.00;;;19.04;40.75
28606;BME280;46498;49.968;7.754;2022-07-06T16:24:44;97819.00;;;19.61;40.72
28606;BME280;46498;49.968;7.754;2022-07-06T16:29:45;97810.00;;;19.89;39.66
28606;BME280;46498;49.968;7.754;2022-07-06T16:34:46;97812.00;;;19.55;39.25
28606;BME280;46498;49.968;7.754;2022-07-06T16:39:47;97813.00;;;19.59;40.03
28606;BME280;46498;49.968;7.754;2022-07-06T16:44:48;97803.00;;;19.92;39.10
28606;BME280;46498;49.968;7.754;2022-07-06T16:49:49;97801.00;;;20.12;38.93
28606;BME280;46498;49.968;7.754;2022-07-06T16:54:50;97808.00;;;20.16;38.89
28606;BME280;46498;49.968;7.754;2022-07-06T16:59:51;97808.00;;;20.16;38.50
28606;BME280;46498;49.968;7.754;2022-07-06T17:04:52;97794.00;;;19.86;39.23
28606;BME280;46498;49.968;7.754;2022-07-06T17:09:53;97796.00;;;19.81;40.02
28606;BME280;46498;49.968;7.754;2022-07-06T17:14:55;97788.00;;;19.95;39.49
28606;BME280;46498;49.968;7.754;2022-07-06T17:19:56;97795.00;;;19.99;38.96
28606;BME280;46498;49.968;7.754;2022-07-06T17:24:57;97794.00;;;19.93;38.84
28606;BME280;46498;49.968;7.754;2022-07-06T17:29:58;97787.00;;;19.67;39.99
28606;BME280;46498;49.968;7.754;2022-07-06T17:34:59;97794.00;;;19.58;39.93
28606;BME280;46498;49.968;7.754;2022-07-06T17:40:00;97795.00;;;19.52;40.22
28606;BME280;46498;49.968;7.754;2022-07-06T17:45:03;97802.00;;;19.56;40.25
28606;BME280;46498;49.968;7.754;2022-07-06T17:50:04;97805.00;;;19.46;40.52
28606;BME280;46498;49.968;7.754;2022-07-06T17:55:06;97805.00;;;19.41;41.22
28606;BME280;46498;49.968;7.754;2022-07-06T18:00:08;97802.00;;;19.41;41.41
28606;BME280;46498;49.968;7.754;2022-07-06T18:05:10;97802.00;;;19.36;41.65
28606;BME280;46498;49.968;7.754;2022-07-06T18:10:11;97790.00;;;19.05;42.69
28606;BME280;46498;49.968;7.754;2022-07-06T18:15:12;97781.00;;;18.86;42.27
28606;BME280;46498;49.968;7.754;2022-07-06T18:20:13;97772.00;;;18.76;42.89
28606;BME280;46498;49.968;7.754;2022-07-06T18:25:14;97780.00;;;18.43;43.57
28606;BME280;46498;49.968;7.754;2022-07-06T18:30:15;97787.00;;;18.19;44.30
28606;BME280;46498;49.968;7.754;2022-07-06T18:35:16;97786.00;;;18.21;44.58
28606;BME280;46498;49.968;7.754;2022-07-06T18:40:17;97795.00;;;18.18;44.64
28606;BME280;46498;49.968;7.754;2022-07-06T18:45:18;97791.00;;;17.97;45.53
28606;BME280;46498;49.968;7.754;2022-07-06T18:50:20;97792.00;;;18.07;45.37
28606;BME280;46498;49.968;7.754;2022-07-06T18:55:21;97784.00;;;17.93;45.64
28606;BME280;46498;49.968;7.754;2022-07-06T19:00:22;97777.00;;;17.78;46.12
28606;BME280;46498;49.968;7.754;2022-07-06T19:05:23;97784.00;;;17.70;46.62
28606;BME280;46498;49.968;7.754;2022-07-06T19:10:24;97782.00;;;17.56;46.91
28606;BME280;46498;49.968;7.754;2022-07-06T19:15:25;97773.00;;;17.54;46.95
28606;BME280;46498;49.968;7.754;2022-07-06T19:20:26;97784.00;;;17.49;47.50
28606;BME280;46498;49.968;7.754;2022-07-06T19:25:27;97790.00;;;17.34;47.69
28606;BME280;46498;49.968;7.754;2022-07-06T19:30:28;97790.00;;;17.28;48.02
28606;BME280;46498;49.968;7.754;2022-07-06T19:35:32;97796.00;;;17.17;48.22
28606;BME280;46498;49.968;7.754;2022-07-06T19:40:33;97804.00;;;17.08;48.93
28606;BME280;46498;49.968;7.754;2022-07-06T19:45:34;97813.00;;;16.96;49.32
28606;BME280;46498;49.968;7.754;2022-07-06T19:50:35;97810.00;;;16.77;50.62
28606;BME280;46498;49.968;7.754;2022-07-06T19:55:37;97816.00;;;16.56;51.39
28606;BME280;46498;49.968;7.754;2022-07-06T20:00:38;97815.00;;;16.34;52.12
28606;BME280;46498;49.968;7.754;2022-07-06T20:05:39;97818.00;;;16.22;52.68
28606;BME280;46498;49.968;7.754;2022-07-06T20:10:40;97822.00;;;15.87;53.57
28606;BME280;46498;49.968;7.754;2022-07-06T20:15:42;97812.00;;;15.65;54.60
28606;BME280;46498;49.968;7.754;2022-07-06T20:20:43;97818.00;;;15.36;55.94
28606;BME280;46498;49.968;7.754;2022-07-06T20:25:44;97820.00;;;15.09;57.06
28606;BME280;46498;49.968;7.754;2022-07-06T20:30:45;97822.00;;;15.07;57.71
28606;BME280;46498;49.968;7.754;2022-07-06T20:35:46;97827.00;;;15.20;57.63
28606;BME280;46498;49.968;7.754;2022-07-06T20:40:47;97823.00;;;15.28;57.10
28606;BME280;46498;49.968;7.754;2022-07-06T20:45:48;97812.00;;;15.28;56.58
28606;BME280;46498;49.968;7.754;2022-07-06T20:50:49;97811.00;;;15.31;56.91
28606;BME280;46498;49.968;7.754;2022-07-06T20:55:50;97813.00;;;15.08;57.63
28606;BME280;46498;49.968;7.754;2022-07-06T21:00:52;97814.00;;;14.87;58.59
28606;BME280;46498;49.968;7.754;2022-07-06T21:05:53;97810.00;;;14.93;58.62
28606;BME280;46498;49.968;7.754;2022-07-06T21:10:54;97810.00;;;14.81;59.55
28606;BME280;46498;49.968;7.754;2022-07-06T21:15:55;97804.00;;;14.86;59.98
28606;BME280;46498;49.968;7.754;2022-07-06T21:20:55;97802.00;;;14.93;59.53
28606;BME280;46498;49.968;7.754;2022-07-06T21:25:57;97797.00;;;14.95;59.66
28606;BME280;46498;49.968;7.754;2022-07-06T21:30:57;97808.00;;;15.03;60.32
28606;BME280;46498;49.968;7.754;2022-07-06T21:35:59;97799.00;;;15.08;60.35
28606;BME280;46498;49.968;7.754;2022-07-06T21:41:00;97804.00;;;15.12;60.40
28606;BME280;46498;49.968;7.754;2022-07-06T21:46:01;97799.00;;;15.09;59.31
28606;BME280;46498;49.968;7.754;2022-07-06T21:51:02;97794.00;;;15.10;59.85
28606;BME280;46498;49.968;7.754;2022-07-06T21:56:04;97790.00;;;15.21;59.76
28606;BME280;46498;49.968;7.754;2022-07-06T22:01:05;97792.00;;;15.26;58.96
28606;BME280;46498;49.968;7.754;2022-07-06T22:06:06;97799.00;;;15.30;58.85
28606;BME280;46498;49.968;7.754;2022-07-06T22:11:07;97797.00;;;15.20;59.21
28606;BME280;46498;49.968;7.754;2022-07-06T22:16:14;97796.00;;;15.19;59.64
28606;BME280;46498;49.968;7.754;2022-07-06T22:21:16;97805.00;;;15.15;60.28
28606;BME280;46498;49.968;7.754;2022-07-06T22:26:17;97800.00;;;14.97;60.76
28606;BME280;46498;49.968;7.754;2022-07-06T22:31:20;97803.00;;;15.00;60.69
28606;BME280;46498;49.968;7.754;2022-07-06T22:36:22;97795.00;;;14.98;60.24
28606;BME280;46498;49.968;7.754;2022-07-06T22:41:28;97787.00;;;15.00;61.26
28606;BME280;46498;49.968;7.754;2022-07-06T22:46:32;97783.00;;;14.94;63.34
28606;BME280;46498;49.968;7.754;2022-07-06T22:51:33;97770.00;;;14.92;64.36
28606;BME280;46498;49.968;7.754;2022-07-06T22:56:35;97770.00;;;15.00;64.48
28606;BME280;46498;49.968;7.754;2022-07-06T23:01:36;97778.00;;;15.05;63.60
28606;BME280;46498;49.968;7.754;2022-07-06T23:06:38;97773.00;;;15.07;63.57
28606;BME280;46498;49.968;7.754;2022-07-06T23:11:39;97772.00;;;15.11;62.81
28606;BME280;46498;49.968;7.754;2022-07-06T23:16:39;97763.00;;;15.12;62.39
28606;BME280;46498;49.968;7.754;2022-07-06T23:21:41;97757.00;;;15.14;62.88
28606;BME280;46498;49.968;7.754;2022-07-06T23:26:41;97747.00;;;14.97;64.47
28606;BME280;46498;49.968;7.754;2022-07-06T23:31:42;97744.00;;;14.81;65.12
28606;BME280;46498;49.968;7.754;2022-07-06T23:36:43;97735.00;;;14.84;65.51
28606;BME280;46498;49.968;7.754;2022-07-06T23:41:44;97728.00;;;14.87;64.78
28606;BME280;46498;49.968;7.754;2022-07-06T23:46:45;97738.00;;;14.79;64.21
28606;BME280;46498;49.968;7.754;2022-07-06T23:51:46;97735.00;;;14.86;64.15
28606;BME280;46498;49.968;7.754;2022-07-06T23:56:47;97730.00;;;14.86;63.43
